Time;durP1;ratioP1;P1;durP2;ratioP2;P2;SDS_P1;SDS_P2;PMS_P1;PMS_P2;Temp;Humidity;BMP_temperature;BMP_pressure;BME280_temperature;BME280_humidity;BME280_pressure;Samples;Min_cycle;Max_cycle;Signal;HPM_P1;HPM_P2
2021/03/22 00:00:55;;;;;;;10.65;8.88;;;;;;;12.82;56.02;98832.45;1749569;80;21136;-63
2021/03/22 00:03:24;;;;;;;11.55;9.30;;;;;;;12.80;56.04;98827.32;1740905;81;21219;-63
2021/03/22 00:05:53;;;;;;;8.33;7.45;;;;;;;12.78;56.01;98823.52;1744101;81;21187;-63
2021/03/22 00:08:21;;;;;;;10.08;8.63;;;;;;;12.77;55.99;98813.09;1745201;81;21346;-63
2021/03/22 00:10:51;;;;;;;9.33;8.33;;;;;;;12.77;55.97;98817.09;1765000;79;21119;-63
2021/03/22 00:13:22;;;;;;;9.33;7.97;;;;;;;12.76;56.01;98809.58;1756534;80;21665;-63
2021/03/22 00:15:55;;;;;;;10.90;9.13;;;;;;;12.76;56.02;98806.91;1762687;80;21183;-63
2021/03/22 00:18:26;;;;;;;9.75;8.65;;;;;;;12.75;56.04;98804.48;1769757;80;22098;-63
2021/03/22 00:20:55;;;;;;;9.90;8.18;;;;;;;12.73;56.03;98800.69;1841169;77;21299;-63
2021/03/22 00:23:24;;;;;;;9.40;8.38;;;;;;;12.73;56.02;98790.02;1831910;77;21151;-63
2021/03/22 00:25:52;;;;;;;10.38;8.85;;;;;;;12.72;56.04;98785.70;1835925;77;21683;-64
2021/03/22 00:28:20;;;;;;;9.33;8.33;;;;;;;12.71;56.07;98799.22;1833995;77;21147;-63
2021/03/22 00:30:48;;;;;;;9.70;8.70;;;;;;;12.70;56.01;98786.42;1785645;79;21140;-63
2021/03/22 00:33:17;;;;;;;11.33;9.20;;;;;;;12.69;55.99;98790.13;1755987;79;21241;-62
2021/03/22 00:35:48;;;;;;;8.75;7.85;;;;;;;12.68;56.05;98785.81;1755518;79;21199;-63
2021/03/22 00:38:16;;;;;;;8.43;7.62;;;;;;;12.68;56.07;98789.80;1776012;80;21158;-63
2021/03/22 00:40:46;;;;;;;10.40;9.35;;;;;;;12.66;55.98;98787.86;1747497;80;21207;-64
2021/03/22 00:43:13;;;;;;;8.55;7.65;;;;;;;12.65;55.97;98782.23;1766954;79;21191;-63
2021/03/22 00:45:44;;;;;;;8.93;8.03;;;;;;;12.65;56.02;98784.91;1772192;79;21590;-62
2021/03/22 00:48:12;;;;;;;9.70;8.73;;;;;;;12.64;56.02;98782.44;1774809;80;21179;-62
2021/03/22 00:50:43;;;;;;;8.95;8.05;;;;;;;12.63;56.09;98780.27;1788548;79;21114;-62
2021/03/22 00:53:12;;;;;;;9.58;8.68;;;;;;;12.63;56.05;98782.93;1774580;79;21159;-62
2021/03/22 00:55:40;;;;;;;8.80;7.90;;;;;;;12.62;56.11;98773.83;1770045;79;21175;-63
2021/03/22 00:58:07;;;;;;;9.63;8.35;;;;;;;12.61;56.11;98774.32;1769807;79;21206;-63
2021/03/22 01:00:44;;;;;;;10.25;8.58;;;;;;;12.59;56.05;98769.22;1837962;77;21119;-62
2021/03/22 01:03:17;;;;;;;11.40;7.95;;;;;;;12.60;56.05;98771.37;1823445;77;21108;-63
2021/03/22 01:05:45;;;;;;;9.68;8.68;;;;;;;12.58;56.03;98772.90;1839267;77;21940;-63
2021/03/22 01:08:13;;;;;;;9.08;7.62;;;;;;;12.57;56.02;98773.09;1838938;77;21127;-63
2021/03/22 01:10:46;;;;;;;9.10;8.15;;;;;;;12.55;56.08;98771.96;1838165;77;21119;-63
2021/03/22 01:13:25;;;;;;;8.65;7.75;;;;;;;12.55;56.04;98774.63;1846994;77;21154;-63
2021/03/22 01:15:54;;;;;;;7.70;6.90;;;;;;;12.55;56.05;98780.47;1841790;77;21114;-63
2021/03/22 01:18:28;;;;;;;8.98;7.53;;;;;;;12.52;56.05;98776.91;1855275;77;21151;-64
2021/03/22 01:21:00;;;;;;;8.95;8.00;;;;;;;12.51;56.07;98778.73;1779828;79;21152;-63
2021/03/22 01:25:27;;;;;;;9.55;8.40;;;;;;;12.54;56.06;98769.53;1828418;76;28176;-63
2021/03/22 01:27:56;;;;;;;9.93;8.58;;;;;;;12.45;56.13;98768.08;1792708;78;21114;-61
2021/03/22 01:30:31;;;;;;;9.65;8.50;;;;;;;12.44;56.19;98770.42;1793416;77;21272;-63
2021/03/22 01:32:59;;;;;;;9.95;8.95;;;;;;;12.44;56.15;98768.60;1803471;78;21189;-63
2021/03/22 01:35:27;;;;;;;9.58;8.43;;;;;;;12.45;56.14;98774.73;1790132;77;21452;-64
2021/03/22 01:37:54;;;;;;;9.18;8.18;;;;;;;12.44;56.18;98771.75;1793028;79;21142;-64
2021/03/22 01:40:36;;;;;;;8.58;7.67;;;;;;;12.43;56.17;98772.80;1792590;77;21652;-63
2021/03/22 01:43:09;;;;;;;9.48;8.50;;;;;;;12.44;56.20;98778.41;1790795;77;21317;-63
2021/03/22 01:45:38;;;;;;;11.22;8.65;;;;;;;12.42;56.12;98775.14;1796122;79;21170;-63
2021/03/22 01:48:06;;;;;;;9.23;8.23;;;;;;;12.41;56.11;98770.84;1787727;77;21129;-64
2021/03/22 01:50:36;;;;;;;9.25;8.23;;;;;;;12.39;56.13;98767.86;1794414;77;21146;-64
2021/03/22 01:53:03;;;;;;;9.13;8.08;;;;;;;12.39;56.11;98764.39;1790647;78;21154;-64
2021/03/22 01:55:30;;;;;;;10.30;9.20;;;;;;;12.39;56.10;98761.20;1791733;77;21369;-63
2021/03/22 01:57:59;;;;;;;10.50;8.48;;;;;;;12.38;56.09;98764.91;1791193;78;21158;-64
2021/03/22 02:00:32;;;;;;;9.28;8.30;;;;;;;12.38;56.12;98768.91;1787522;77;21747;-64
2021/03/22 02:03:11;;;;;;;9.65;8.05;;;;;;;12.37;56.11;98767.25;1790293;77;21169;-64
2021/03/22 02:05:47;;;;;;;9.50;8.50;;;;;;;12.36;56.14;98766.95;1791930;78;21177;-65
2021/03/22 02:08:23;;;;;;;10.20;8.63;;;;;;;12.35;56.11;98769.30;1784919;77;21735;-62
2021/03/22 02:10:51;;;;;;;8.70;7.80;;;;;;;12.34;56.18;98767.67;1799717;77;21224;-63
2021/03/22 02:13:24;;;;;;;9.85;8.85;;;;;;;12.34;56.16;98766.83;1794097;78;21158;-63
2021/03/22 02:16:01;;;;;;;9.50;8.55;;;;;;;12.34;56.15;98765.50;1785775;77;21557;-64
2021/03/22 02:19:12;;;;;;;9.23;8.18;;;;;;;12.33;56.10;98768.68;1798137;78;21091;-63
2021/03/22 02:22:08;;;;;;;8.70;7.80;;;;;;;12.33;56.17;98760.69;1800007;77;21320;-63
2021/03/22 02:25:20;;;;;;;9.53;7.97;;;;;;;12.28;56.16;98760.47;1782291;77;21213;-63
2021/03/22 02:28:44;;;;;;;9.60;8.60;;;;;;;12.26;56.19;98755.86;1780260;78;21102;-64
2021/03/22 02:31:41;;;;;;;9.25;8.33;;;;;;;12.24;56.24;98751.77;1797264;78;21119;-64
2021/03/22 02:34:29;;;;;;;8.90;7.95;;;;;;;12.18;56.32;98754.73;1782039;78;22096;-63
2021/03/22 02:37:17;;;;;;;9.83;8.60;;;;;;;12.16;56.36;98743.46;1783687;78;21377;-63
2021/03/22 02:39:53;;;;;;;9.50;8.50;;;;;;;12.15;56.36;98745.31;1778330;78;21099;-63
2021/03/22 02:42:21;;;;;;;10.08;8.25;;;;;;;12.13;56.38;98746.03;1773745;77;21083;-63
2021/03/22 02:44:48;;;;;;;10.08;8.78;;;;;;;12.13;56.40;98750.52;1773785;77;21639;-63
2021/03/22 02:47:34;;;;;;;9.55;8.55;;;;;;;12.13;56.45;98752.69;1782742;79;21610;-63
2021/03/22 02:50:11;;;;;;;8.90;8.00;;;;;;;12.15;56.36;98751.16;1788274;77;21820;-63
2021/03/22 02:53:07;;;;;;;10.28;8.95;;;;;;;12.12;56.30;98743.05;1772334;78;21119;-64
2021/03/22 02:56:14;;;;;;;9.68;8.50;;;;;;;12.12;56.36;98738.23;1786636;78;21135;-64
2021/03/22 02:58:53;;;;;;;9.98;8.80;;;;;;;12.11;56.30;98748.08;1779123;79;21618;-64
2021/03/22 03:01:31;;;;;;;10.43;8.53;;;;;;;12.09;56.38;98740.80;1765757;78;21131;-63
2021/03/22 03:04:00;;;;;;;10.82;9.65;;;;;;;12.09;56.36;98731.98;1775624;79;21362;-63
2021/03/22 03:06:57;;;;;;;10.75;8.55;;;;;;;12.08;56.32;98737.82;1779898;78;21158;-64
2021/03/22 03:09:32;;;;;;;9.70;8.35;;;;;;;12.08;56.33;98737.82;1783307;79;21150;-63
2021/03/22 03:12:20;;;;;;;;;;;;;;;12.08;56.33;98726.36;1784569;78;21103;-63
2021/03/22 03:14:50;;;;;;;8.88;7.97;;;;;;;12.06;56.37;98725.22;1773610;78;20297;-63
2021/03/22 03:17:18;;;;;;;10.25;8.58;;;;;;;11.99;56.46;98731.88;1777471;77;21187;-63
2021/03/22 03:19:51;;;;;;;9.03;8.08;;;;;;;12.00;56.50;98728.18;1783851;79;21174;-63
2021/03/22 03:22:20;;;;;;;9.88;8.43;;;;;;;12.01;56.46;98728.99;1780541;77;21178;-64
2021/03/22 03:24:48;;;;;;;9.73;8.25;;;;;;;12.03;56.43;98734.94;1786555;78;21610;-64
2021/03/22 03:27:15;;;;;;;9.63;8.58;;;;;;;12.02;56.39;98738.63;1775754;77;21162;-65
2021/03/22 03:29:43;;;;;;;9.45;8.25;;;;;;;12.05;56.36;98728.08;1778452;78;21364;-65
2021/03/22 03:32:13;;;;;;;9.55;8.18;;;;;;;12.04;56.32;98728.60;1790432;78;21682;-65
2021/03/22 03:34:41;;;;;;;10.13;9.08;;;;;;;12.05;56.30;98721.42;1777416;79;21576;-65
2021/03/22 03:37:09;;;;;;;9.75;8.30;;;;;;;12.06;56.27;98725.74;1781970;77;21122;-66
2021/03/22 03:39:37;;;;;;;8.80;7.90;;;;;;;12.06;56.20;98719.90;1780859;77;21107;-65
2021/03/22 03:42:06;;;;;;;8.78;7.87;;;;;;;12.07;56.16;98720.71;1791709;78;21368;-66
2021/03/22 03:44:35;;;;;;;9.08;8.18;;;;;;;12.07;56.16;98718.05;1776208;79;21165;-64
2021/03/22 03:47:04;;;;;;;9.55;8.20;;;;;;;12.07;56.09;98711.39;1771390;79;21158;-65
2021/03/22 03:49:32;;;;;;;9.95;8.70;;;;;;;12.07;56.08;98704.73;1783128;78;21166;-65
2021/03/22 03:51:59;;;;;;;9.05;8.10;;;;;;;12.07;56.08;98706.07;1779940;77;21613;-65
2021/03/22 03:54:27;;;;;;;9.85;8.45;;;;;;;12.07;56.09;98697.59;1777153;78;21356;-65
2021/03/22 03:56:55;;;;;;;8.83;7.90;;;;;;;12.07;56.05;98698.92;1786468;78;21575;-65
2021/03/22 03:59:24;;;;;;;9.23;7.75;;;;;;;12.07;56.01;98706.07;1746618;80;21215;-66
2021/03/22 04:01:52;;;;;;;9.10;8.15;;;;;;;12.06;55.97;98701.27;1732964;81;21179;-65
2021/03/22 04:04:20;;;;;;;9.90;8.45;;;;;;;12.06;55.91;98701.27;1742862;81;21178;-65
2021/03/22 04:06:47;;;;;;;8.53;7.65;;;;;;;12.06;55.92;98700.45;1779527;79;22069;-66
2021/03/22 04:09:19;;;;;;;10.23;9.10;;;;;;;12.06;55.93;98699.94;1783436;79;21170;-65
2021/03/22 04:11:48;;;;;;;10.65;9.23;;;;;;;12.06;55.87;98695.13;1780166;77;21119;-65
2021/03/22 04:14:26;;;;;;;9.15;8.03;;;;;;;12.05;55.91;98696.14;1782773;79;21119;-64
2021/03/22 04:16:53;;;;;;;9.08;8.18;;;;;;;12.05;55.94;98687.63;1790569;78;21150;-63
2021/03/22 04:19:21;;;;;;;9.30;8.30;;;;;;;12.04;55.89;98693.19;1785869;77;21431;-65
2021/03/22 04:21:49;;;;;;;10.70;8.38;;;;;;;12.03;55.88;98690.20;1783719;77;21166;-64
2021/03/22 04:24:17;;;;;;;9.05;7.53;;;;;;;12.04;55.89;98687.86;1776152;77;21130;-65
2021/03/22 04:26:44;;;;;;;10.95;8.55;;;;;;;12.02;55.87;98689.39;1819676;77;21534;-64
2021/03/22 04:29:12;;;;;;;9.70;8.35;;;;;;;12.02;55.88;98685.39;1811142;77;21137;-66
2021/03/22 04:31:39;;;;;;;9.65;8.60;;;;;;;12.02;55.84;98688.05;1801325;78;21188;-64
2021/03/22 04:34:07;;;;;;;9.70;8.68;;;;;;;12.02;55.82;98686.73;1809891;77;21189;-65
2021/03/22 04:36:36;;;;;;;9.85;8.85;;;;;;;12.02;55.84;98688.58;1816426;78;21129;-66
2021/03/22 04:39:05;;;;;;;9.43;7.83;;;;;;;12.02;55.82;98691.23;1798170;77;21121;-65
2021/03/22 04:41:32;;;;;;;9.65;8.65;;;;;;;12.02;55.83;98688.58;1809128;77;21117;-65
2021/03/22 04:44:00;;;;;;;10.28;8.73;;;;;;;12.01;55.76;98690.39;1803171;77;21331;-65
2021/03/22 04:46:28;;;;;;;10.15;8.70;;;;;;;11.99;55.78;98686.63;1733093;80;21169;-65
2021/03/22 04:48:57;;;;;;;8.98;8.10;;;;;;;12.01;55.76;98698.38;1787578;78;21174;-65
2021/03/22 04:51:25;;;;;;;10.13;8.10;;;;;;;11.99;55.75;98706.59;1774706;78;21136;-65
2021/03/22 04:53:52;;;;;;;9.43;7.47;;;;;;;12.00;55.74;98701.56;1772638;80;21139;-64
2021/03/22 04:56:21;;;;;;;10.15;8.30;;;;;;;12.00;55.73;98701.56;1768518;78;21341;-64
2021/03/22 04:58:48;;;;;;;8.93;7.95;;;;;;;12.01;55.70;98698.38;1763983;78;21129;-65
2021/03/22 05:01:16;;;;;;;9.15;7.95;;;;;;;11.99;55.70;98699.94;1769508;78;21654;-64
2021/03/22 05:03:44;;;;;;;9.65;8.48;;;;;;;12.01;55.72;98697.05;1770045;78;21665;-64
2021/03/22 05:06:12;;;;;;;8.80;7.92;;;;;;;12.01;55.68;98701.05;1762453;80;21132;-65
2021/03/22 05:08:40;;;;;;;9.15;8.15;;;;;;;12.02;55.72;98697.89;1774289;78;21387;-64
2021/03/22 05:11:07;;;;;;;9.03;8.05;;;;;;;12.02;55.67;98699.22;1780875;80;22105;-65
2021/03/22 05:13:35;;;;;;;9.48;8.48;;;;;;;12.01;55.66;98690.39;1766814;78;21164;-65
2021/03/22 05:16:03;;;;;;;10.53;9.33;;;;;;;12.01;55.69;98698.38;1766021;80;21580;-65
2021/03/22 05:18:31;;;;;;;9.40;7.95;;;;;;;12.02;55.67;98704.55;1777163;78;21741;-64
2021/03/22 05:21:03;;;;;;;9.90;8.73;;;;;;;12.03;55.66;98710.16;1774244;78;21364;-64
2021/03/22 05:23:31;;;;;;;9.05;7.97;;;;;;;12.02;55.64;98712.02;1771272;78;21604;-65
2021/03/22 05:25:58;;;;;;;8.30;7.50;;;;;;;12.02;55.60;98717.34;1737341;80;21133;-66
2021/03/22 05:28:28;;;;;;;8.65;7.60;;;;;;;12.02;55.65;98716.53;1769330;80;21637;-67
2021/03/22 05:30:55;;;;;;;8.93;8.00;;;;;;;12.02;55.61;98713.34;1809610;77;21556;-65
2021/03/22 05:33:23;;;;;;;9.98;8.80;;;;;;;12.04;55.63;98717.14;1804393;78;21194;-65
2021/03/22 05:35:54;;;;;;;10.20;8.88;;;;;;;12.05;55.60;98722.23;1802339;77;21181;-65
2021/03/22 05:38:22;;;;;;;9.88;8.88;;;;;;;12.05;55.63;98729.41;1798099;78;21629;-66
2021/03/22 05:40:59;;;;;;;9.63;8.65;;;;;;;12.05;55.64;98726.75;1794223;77;21637;-66
2021/03/22 05:44:21;;;;;;;9.53;8.53;;;;;;;12.05;55.67;98723.57;1801416;78;21074;-65
2021/03/22 05:47:16;;;;;;;10.53;8.83;;;;;;;12.06;55.63;98719.90;1804385;78;21369;-64
2021/03/22 05:50:09;;;;;;;9.98;7.92;;;;;;;12.02;55.68;98717.34;1774975;77;21188;-65
2021/03/22 05:52:59;;;;;;;9.23;8.30;;;;;;;12.01;55.73;98723.67;1791457;77;21169;-64
2021/03/22 05:55:56;;;;;;;9.23;7.85;;;;;;;12.00;55.75;98718.87;1801054;77;21550;-66
2021/03/22 05:59:17;;;;;;;8.83;7.92;;;;;;;12.02;55.81;98725.84;1814036;77;21621;-67
2021/03/22 06:01:49;;;;;;;8.83;7.92;;;;;;;12.03;55.86;98715.48;1751694;79;21186;-66
2021/03/22 06:04:37;;;;;;;11.30;10.20;;;;;;;12.04;55.92;98708.64;1803482;77;27928;-64
2021/03/22 06:07:05;;;;;;;11.03;9.93;;;;;;;12.30;55.63;98706.49;1783496;77;28152;-65
2021/03/22 06:09:46;;;;;;;9.88;7.72;;;;;;;12.88;54.65;98710.34;1789659;78;21199;-65
2021/03/22 06:12:42;;;;;;;9.98;7.95;;;;;;;13.07;54.05;98702.81;1793461;77;21639;-66
2021/03/22 06:15:26;;;;;;;8.45;7.58;;;;;;;12.93;54.26;98708.70;1779043;78;22110;-66
2021/03/22 06:18:33;;;;;;;8.70;7.83;;;;;;;12.81;54.48;98705.56;1780915;78;21116;-65
2021/03/22 06:21:06;;;;;;;9.60;8.60;;;;;;;12.75;54.75;98716.53;1811834;77;21582;-66
2021/03/22 06:23:42;;;;;;;7.47;6.78;;;;;;;12.67;55.04;98711.40;1816373;77;21394;-64
2021/03/22 06:26:39;;;;;;;8.95;8.05;;;;;;;12.62;55.20;98717.36;1770739;79;22229;-65
2021/03/22 06:29:36;;;;;;;8.55;7.65;;;;;;;12.59;55.38;98711.94;1790762;78;21194;-66
2021/03/22 06:32:20;;;;;;;7.83;7.03;;;;;;;12.58;55.60;98720.13;1802589;78;21151;-66
2021/03/22 06:34:59;;;;;;;8.73;7.15;;;;;;;12.54;55.84;98720.24;1785632;78;21158;-66
2021/03/22 06:37:33;;;;;;;9.13;7.80;;;;;;;12.52;56.02;98730.28;1780534;77;22288;-68
2021/03/22 06:40:27;;;;;;;9.33;7.95;;;;;;;12.51;56.17;98723.30;1786558;79;21461;-65
2021/03/22 06:43:22;;;;;;;8.60;7.45;;;;;;;12.51;56.31;98728.63;1780264;77;21170;-65
2021/03/22 06:46:07;;;;;;;8.78;7.72;;;;;;;12.50;56.37;98732.34;1787730;79;21626;-67
2021/03/22 06:48:36;;;;;;;8.35;7.53;;;;;;;12.49;56.44;98732.02;1793456;77;21198;-67
2021/03/22 06:51:13;;;;;;;8.05;7.25;;;;;;;12.49;56.53;98730.16;1807040;77;21350;-65
2021/03/22 06:53:58;;;;;;;8.60;7.62;;;;;;;12.50;56.59;98732.34;1777365;79;21132;-66
2021/03/22 06:56:33;;;;;;;8.43;7.53;;;;;;;12.51;56.59;98737.95;1794203;78;21650;-65
2021/03/22 06:59:23;;;;;;;7.67;6.87;;;;;;;12.51;56.66;98745.42;1808574;78;21327;-66
2021/03/22 07:01:51;;;;;;;8.63;7.37;;;;;;;12.53;56.61;98738.56;1784686;78;21127;-65
2021/03/22 07:04:29;;;;;;;9.05;7.80;;;;;;;12.54;56.61;98744.22;1760644;79;22270;-65
2021/03/22 07:07:24;;;;;;;9.08;7.95;;;;;;;12.55;56.64;98745.32;1756591;81;21186;-66
2021/03/22 07:09:59;;;;;;;7.80;7.00;;;;;;;12.56;56.74;98746.16;1758644;79;21589;-65
2021/03/22 07:12:38;;;;;;;9.48;7.45;;;;;;;12.57;56.75;98748.63;1732949;80;21218;-67
2021/03/22 07:15:32;;;;;;;8.60;7.40;;;;;;;12.58;56.79;98752.91;1769064;79;21189;-66
2021/03/22 07:18:23;;;;;;;8.48;7.58;;;;;;;12.61;56.86;98756.19;1762496;80;22423;-64
2021/03/22 07:21:16;;;;;;;7.75;6.95;;;;;;;12.61;56.87;98755.67;1757811;79;21642;-63
2021/03/22 07:23:52;;;;;;;9.03;7.58;;;;;;;12.62;56.84;98754.66;1780381;80;21173;-61
2021/03/22 07:26:45;;;;;;;7.75;6.95;;;;;;;12.63;57.77;98708.33;1769555;80;21638;-64
2021/03/22 07:29:53;;;;;;;7.62;6.58;;;;;;;12.84;59.17;98747.77;1770000;80;21690;-65
2021/03/22 07:32:32;;;;;;;8.48;7.00;;;;;;;13.11;58.56;98746.69;1754250;80;21331;-65
2021/03/22 07:35:50;;;;;;;7.65;6.85;;;;;;;13.18;58.69;98751.50;1754144;80;21194;-65
2021/03/22 07:38:47;;;;;;;7.20;6.28;;;;;;;13.23;58.47;98744.72;1757810;79;21240;-66
2021/03/22 07:41:41;;;;;;;7.45;6.62;;;;;;;13.26;58.20;98752.31;1767884;80;21239;-64
2021/03/22 07:44:48;;;;;;;7.37;6.58;;;;;;;13.27;57.98;98748.11;1768288;80;21632;-64
2021/03/22 07:48:04;;;;;;;8.08;6.65;;;;;;;13.28;57.70;98748.39;1776858;80;21328;-65
2021/03/22 07:50:43;;;;;;;8.10;6.42;;;;;;;13.28;57.47;98747.06;1772221;80;21205;-64
2021/03/22 07:53:39;;;;;;;7.58;6.78;;;;;;;13.28;57.40;98743.58;1763890;80;21185;-66
2021/03/22 07:56:14;;;;;;;7.40;6.37;;;;;;;13.28;57.35;98742.25;1762320;79;21189;-65
2021/03/22 07:59:00;;;;;;;8.15;6.97;;;;;;;13.28;57.27;98738.25;1737427;80;21189;-64
2021/03/22 08:01:59;;;;;;;7.70;6.72;;;;;;;13.31;57.17;98747.20;1740625;79;21852;-65
2021/03/22 08:05:08;;;;;;;8.18;7.35;;;;;;;13.31;57.09;98744.02;1772792;80;21196;-63
2021/03/22 08:07:59;;;;;;;7.05;6.22;;;;;;;13.31;57.00;98744.55;1775314;80;21157;-64
2021/03/22 08:10:34;;;;;;;7.97;6.72;;;;;;;13.30;56.97;98750.37;1767740;78;21161;-65
2021/03/22 08:13:36;;;;;;;7.22;6.53;;;;;;;13.29;56.89;98751.87;1737644;78;21173;-64
2021/03/22 08:16:46;;;;;;;7.67;6.90;;;;;;;13.29;56.86;98753.20;1770070;79;21367;-63
2021/03/22 08:19:39;;;;;;;7.33;6.62;;;;;;;13.27;56.82;98753.44;1777771;80;21685;-64
2021/03/22 08:22:24;;;;;;;7.03;6.28;;;;;;;13.25;56.87;98754.66;1773071;79;21158;-66
2021/03/22 08:25:32;;;;;;;7.95;6.90;;;;;;;13.23;56.81;98751.38;1761099;80;21217;-62
2021/03/22 08:28:26;;;;;;;7.53;6.72;;;;;;;13.20;56.79;98753.16;1771466;80;21184;-66
2021/03/22 08:31:12;;;;;;;7.08;6.35;;;;;;;13.17;56.84;98753.88;1772972;78;21268;-63
2021/03/22 08:33:45;;;;;;;7.30;6.53;;;;;;;13.17;56.86;98758.37;1767261;78;21241;-63
2021/03/22 08:36:55;;;;;;;7.83;7.03;;;;;;;13.16;56.80;98752.23;1766117;78;21139;-62
2021/03/22 08:39:40;;;;;;;7.95;6.75;;;;;;;13.16;56.86;98749.56;1775658;80;21128;-64
2021/03/22 08:42:26;;;;;;;7.67;6.87;;;;;;;13.15;56.89;98753.27;1766593;80;21864;-65
2021/03/22 08:45:17;;;;;;;8.28;6.95;;;;;;;13.16;56.85;98756.23;1734338;80;21355;-67
2021/03/22 08:48:01;;;;;;;8.68;7.20;;;;;;;13.16;56.83;98756.23;1740065;80;21134;-67
2021/03/22 08:53:14;;;;;;;7.50;6.80;;;;;;;13.23;56.85;98750.89;1762456;79;28223;-62
2021/03/22 08:55:49;;;;;;;7.45;6.67;;;;;;;13.22;56.70;98752.43;1771549;79;21149;-65
2021/03/22 08:58:39;;;;;;;7.78;7.00;;;;;;;13.24;56.67;98757.84;1749189;81;21340;-66
2021/03/22 09:01:34;;;;;;;8.58;7.67;;;;;;;13.27;56.56;98757.94;1770540;80;21236;-65
2021/03/22 09:04:23;;;;;;;7.67;6.78;;;;;;;13.26;56.51;98760.31;1760203;81;21183;-63
2021/03/22 09:07:14;;;;;;;8.30;7.08;;;;;;;13.27;56.53;98764.60;1755753;81;21180;-63
2021/03/22 09:09:45;;;;;;;7.62;6.83;;;;;;;13.26;56.50;98768.31;1743660;81;21193;-65
2021/03/22 09:12:40;;;;;;;7.83;6.55;;;;;;;13.25;56.48;98768.00;1747539;81;21236;-66
2021/03/22 09:15:12;;;;;;;7.10;6.40;;;;;;;13.24;56.56;98767.19;1734977;82;21631;-63
2021/03/22 09:17:54;;;;;;;7.93;6.73;;;;;;;13.23;56.53;98762.05;1752917;81;21151;-65
2021/03/22 09:20:47;;;;;;;8.53;7.40;;;;;;;13.22;56.52;98765.24;1740496;81;21162;-64
2021/03/22 09:23:35;;;;;;;8.63;7.62;;;;;;;13.22;56.52;98759.09;1703386;79;21170;-63
2021/03/22 09:26:07;;;;;;;7.85;7.05;;;;;;;13.21;56.55;98758.77;1758304;79;21376;-63
2021/03/22 09:28:47;;;;;;;7.80;7.00;;;;;;;13.20;56.52;98755.82;1754316;81;21596;-64
2021/03/22 09:31:20;;;;;;;7.72;6.85;;;;;;;13.21;56.54;98750.25;1752352;81;21214;-62
2021/03/22 09:34:07;;;;;;;8.83;7.92;;;;;;;13.24;56.54;98755.70;1736905;81;21124;-63
2021/03/22 09:36:46;;;;;;;7.97;7.17;;;;;;;13.27;56.50;98755.27;1732193;79;21241;-63
2021/03/22 09:39:21;;;;;;;8.38;7.58;;;;;;;13.30;56.42;98752.22;1745861;79;22227;-63
2021/03/22 09:42:13;;;;;;;7.58;6.87;;;;;;;13.32;56.37;98754.98;1747507;81;21131;-64
2021/03/22 09:45:02;;;;;;;8.30;7.03;;;;;;;13.37;56.37;98754.36;1768863;79;21622;-65
2021/03/22 09:47:35;;;;;;;8.35;7.53;;;;;;;13.43;56.44;98756.19;1741819;81;21172;-65
2021/03/22 09:50:25;;;;;;;7.95;7.15;;;;;;;13.48;56.53;98757.72;1727799;79;21119;-61
2021/03/22 09:52:58;;;;;;;7.90;7.10;;;;;;;13.55;56.45;98759.02;1739011;82;21352;-68
2021/03/22 09:55:31;;;;;;;8.10;7.30;;;;;;;13.60;56.21;98762.37;1742605;80;25718;-63
2021/03/22 09:58:19;;;;;;;8.40;7.60;;;;;;;13.63;56.17;98767.30;1743227;81;21575;-63
2021/03/22 10:00:57;;;;;;;8.23;7.42;;;;;;;13.65;56.03;98766.56;1720978;81;21178;-63
2021/03/22 10:03:39;;;;;;;8.55;7.65;;;;;;;13.65;55.83;98774.58;1741813;81;21210;-64
2021/03/22 10:06:30;;;;;;;7.78;6.97;;;;;;;13.63;55.72;98766.77;1764284;81;21347;-63
2021/03/22 10:08:57;;;;;;;7.47;6.75;;;;;;;13.62;55.72;98768.31;1749242;81;21174;-62
2021/03/22 10:11:28;;;;;;;9.38;8.18;;;;;;;13.59;55.67;98772.23;1725237;81;21114;-62
2021/03/22 10:13:59;;;;;;;7.67;6.78;;;;;;;13.59;55.67;98774.09;1757310;79;21187;-63
2021/03/22 10:16:35;;;;;;;8.20;7.40;;;;;;;13.58;55.73;98781.28;1762216;79;21111;-63
2021/03/22 10:19:08;;;;;;;8.00;7.20;;;;;;;13.56;55.58;98782.83;1762163;79;21331;-61
2021/03/22 10:21:46;;;;;;;8.25;7.45;;;;;;;13.56;55.56;98784.68;1752148;79;21182;-62
2021/03/22 10:24:42;;;;;;;8.45;7.55;;;;;;;13.56;55.62;98790.02;1743144;81;21174;-63
2021/03/22 10:27:30;;;;;;;8.10;7.22;;;;;;;13.53;55.58;98785.90;1741878;81;21226;-64
2021/03/22 10:30:15;;;;;;;7.53;6.80;;;;;;;13.50;55.60;98786.34;1752081;79;21150;-65
2021/03/22 10:33:03;;;;;;;7.97;7.17;;;;;;;13.48;55.58;98783.06;1758834;79;21394;-64
2021/03/22 10:35:48;;;;;;;8.25;7.10;;;;;;;13.47;55.66;98785.41;1741943;81;21582;-63
2021/03/22 10:38:31;;;;;;;8.43;7.42;;;;;;;13.46;55.71;98792.28;1742576;81;22335;-64
2021/03/22 10:40:59;;;;;;;7.80;6.78;;;;;;;13.44;55.62;98789.82;1759259;81;21156;-65
2021/03/22 10:43:39;;;;;;;8.23;6.62;;;;;;;13.41;55.64;98790.27;1755623;80;21200;-65
2021/03/22 10:46:18;;;;;;;8.53;7.60;;;;;;;13.40;55.65;98792.61;1749825;81;21370;-64
2021/03/22 10:49:07;;;;;;;8.00;7.15;;;;;;;13.39;55.65;98789.66;1747460;81;21243;-64
2021/03/22 10:51:45;;;;;;;8.13;7.33;;;;;;;13.37;55.63;98787.71;1758392;80;21147;-65
2021/03/22 10:54:18;;;;;;;9.18;7.80;;;;;;;13.34;55.65;98782.78;1739148;81;21182;-65
2021/03/22 10:56:55;;;;;;;8.25;7.42;;;;;;;13.32;55.63;98785.65;1747681;81;21602;-65
2021/03/22 10:59:30;;;;;;;8.50;7.50;;;;;;;13.31;55.70;98783.22;1757233;79;22634;-65
2021/03/22 11:02:01;;;;;;;7.25;6.55;;;;;;;13.29;55.68;98781.22;1771965;80;21122;-64
2021/03/22 11:04:33;;;;;;;7.85;7.05;;;;;;;13.27;55.69;98779.27;1765862;81;21275;-67
2021/03/22 11:07:17;;;;;;;8.10;7.30;;;;;;;13.25;55.74;98782.66;1754679;81;21130;-61
2021/03/22 11:10:01;;;;;;;8.75;7.67;;;;;;;13.25;55.71;98780.00;1749698;81;21154;-65
2021/03/22 11:12:30;;;;;;;8.58;7.60;;;;;;;13.23;55.72;98777.56;1744307;81;22311;-64
2021/03/22 11:15:07;;;;;;;8.00;7.20;;;;;;;13.21;55.79;98779.59;1754279;81;21655;-63
2021/03/22 11:17:36;;;;;;;8.80;7.90;;;;;;;13.21;55.72;98784.92;1760507;81;21186;-63
2021/03/22 11:20:07;;;;;;;8.03;7.22;;;;;;;13.19;55.73;98780.31;1758522;81;21184;-64
2021/03/22 11:22:40;;;;;;;8.70;7.85;;;;;;;13.17;55.72;98783.22;1755345;81;21547;-64
2021/03/22 11:25:34;;;;;;;8.28;7.42;;;;;;;13.22;55.67;98779.09;1801534;77;28714;-65
2021/03/22 11:28:07;;;;;;;8.55;7.45;;;;;;;13.17;55.71;98777.04;1784599;79;21587;-65
2021/03/22 11:30:40;;;;;;;8.88;7.87;;;;;;;13.15;55.76;98773.27;1807767;77;21338;-65
2021/03/22 11:33:42;;;;;;;8.73;7.83;;;;;;;13.13;55.74;98773.99;1788858;78;21017;-66
2021/03/22 11:36:17;;;;;;;8.28;7.47;;;;;;;13.14;55.75;98777.47;1737873;78;21178;-63
2021/03/22 11:38:55;;;;;;;8.60;7.72;;;;;;;13.11;55.76;98777.35;1806774;78;21179;-62
2021/03/22 11:41:42;;;;;;;7.92;7.17;;;;;;;13.10;55.79;98776.25;1782190;78;21147;-63
2021/03/22 11:44:25;;;;;;;8.35;7.55;;;;;;;13.10;55.81;98777.06;1783407;78;21273;-64
2021/03/22 11:46:55;;;;;;;;;;;;;;;13.11;55.83;98781.87;1794979;78;21606;-64
2021/03/22 11:49:45;;;;;;;8.53;7.58;;;;;;;13.10;55.82;98777.06;1784697;78;20269;-63
2021/03/22 11:52:20;;;;;;;8.98;8.05;;;;;;;13.05;55.94;98780.86;1782927;78;21208;-61
2021/03/22 11:54:59;;;;;;;9.40;7.85;;;;;;;13.05;55.92;98788.86;1790695;78;21193;-63
2021/03/22 11:57:31;;;;;;;8.60;7.67;;;;;;;13.08;55.87;98788.98;1784824;78;21326;-65
2021/03/22 12:00:01;;;;;;;8.50;7.60;;;;;;;13.09;55.89;98786.08;1777133;79;21170;-66
2021/03/22 12:02:34;;;;;;;8.97;8.07;;;;;;;13.12;55.86;98780.34;1771588;78;21171;-65
2021/03/22 12:05:08;;;;;;;9.45;8.18;;;;;;;13.14;55.84;98782.81;1792524;78;21373;-63
2021/03/22 12:07:47;;;;;;;9.08;8.05;;;;;;;13.16;55.79;98777.56;1780384;78;21163;-63
2021/03/22 12:10:30;;;;;;;8.18;7.37;;;;;;;13.20;55.79;98777.16;1789516;78;21213;-65
2021/03/22 12:13:00;;;;;;;8.55;7.65;;;;;;;13.23;55.68;98786.05;1779008;78;21214;-63
2021/03/22 12:15:27;;;;;;;9.50;8.60;;;;;;;13.24;55.66;98785.04;1776374;78;21215;-61
2021/03/22 12:18:05;;;;;;;9.25;8.03;;;;;;;13.26;55.64;98782.98;1789834;78;21219;-63
2021/03/22 12:20:34;;;;;;;8.43;7.22;;;;;;;13.28;55.58;98780.41;1785373;78;21181;-64
2021/03/22 12:23:02;;;;;;;9.75;8.80;;;;;;;13.31;55.56;98777.88;1766803;78;21363;-65
2021/03/22 12:25:31;;;;;;;8.00;7.22;;;;;;;13.33;55.51;98778.49;1787479;79;21163;-66
2021/03/22 12:27:58;;;;;;;8.40;7.50;;;;;;;13.35;55.49;98788.44;1785081;79;21215;-64